Latest Weather Observations for Rockhampton

IDQ60801

Issued at 7:52 pm EST Friday 26 February 2021 (issued every 10 minutes, with the page automatically refreshed every 10 minutes)

About weather observations | Map of weather stations | Latest weather observations for QLD | Other Formats
Station Details ID: 039083 Name: ROCKHAMPTON AERO Lat: -23.38 Lon: 150.48 Height: 10.4 m
Data from the previous 72 hours. | See also: Recent months at Rockhampton
Date/Time
EST
Temp
°C
App
Temp
°C
Dew
Point
°C
Rel
Hum
%
Delta-T
°C
Wind Press
QNH
hPa
Press
MSL
hPa
Rain since
9am
mm
Dir  Spd
km/h
Gust
km/h
Spd
kts
Gust
kts
26/07:30pm 26.7 28.8 20.1 67 4.3 E 9 13 5 7 1009.1 1009.0 0.0
26/07:00pm 27.1 29.1 19.2 62 5.1 ESE 7 9 4 5 1009.0 1008.9 0.0
26/06:30pm 27.7 29.5 18.7 58 5.8 E 7 11 4 6 1008.7 1008.6 0.0
26/06:00pm 28.4 28.7 18.8 56 6.2 ENE 15 22 8 12 1008.3 1008.2 0.0
26/05:30pm 28.9 29.5 18.7 54 6.6 E 13 20 7 11 1007.9 1007.8 0.0
26/05:00pm 29.3 28.9 18.1 51 7.2 ENE 17 26 9 14 1007.9 1007.8 0.0
26/04:30pm 29.8 29.5 18.3 50 7.4 ENE 17 24 9 13 1007.7 1007.6 0.0
26/04:00pm 30.3 29.5 17.0 44 8.4 ENE 17 24 9 13 1007.5 1007.4 0.0
26/03:30pm 31.1 30.3 17.0 42 8.9 E 17 26 9 14 1007.4 1007.3 0.0
26/03:00pm 32.0 31.0 16.7 40 9.7 ENE 17 24 9 13 1007.4 1007.3 0.0
26/02:30pm 31.0 29.5 16.2 41 9.3 NE 19 26 10 14 1007.5 1007.4 0.0
26/02:00pm 31.5 30.2 15.9 39 9.7 ENE 17 24 9 13 1007.7 1007.6 0.0
26/01:30pm 31.7 30.1 16.0 38 9.8 ENE 19 28 10 15 1008.0 1007.9 0.0
26/01:00pm 32.8 31.2 16.6 38 10.3 ENE 20 28 11 15 1008.1 1008.0 0.0
26/12:30pm 32.6 31.5 17.2 39 9.8 ENE 19 28 10 15 1008.3 1008.2 0.0
26/12:00pm 33.7 33.2 18.6 40 9.9 ENE 19 28 10 15 1008.7 1008.6 0.0
26/11:30am 32.1 31.4 18.3 44 8.9 ENE 19 28 10 15 1009.0 1008.9 0.0
26/11:00am 31.6 31.1 17.9 44 8.8 ENE 17 28 9 15 1009.2 1009.1 0.0
26/10:30am 31.5 31.0 17.8 44 8.8 E 17 26 9 14 1009.3 1009.2 0.0
26/10:00am 30.9 30.4 18.6 48 8.0 ESE 19 28 10 15 1009.5 1009.4 0.0
26/09:30am 30.3 31.0 20.5 55 6.5 E 17 26 9 14 1009.7 1009.6 0.0
26/09:00am 28.9 29.4 20.9 62 5.3 E 19 26 10 14 1009.6 1009.5 0.0
26/08:30am 27.5 29.1 21.5 70 4.0 ESE 15 26 8 14 1009.5 1009.4 0.0
26/08:00am 26.8 28.2 21.8 74 3.3 ESE 17 24 9 13 1009.5 1009.4 0.0
26/07:30am 25.8 27.9 21.7 78 2.7 ESE 13 24 7 13 1009.6 1009.5 0.0
26/07:00am 24.0 26.2 21.1 84 1.9 ESE 11 17 6 9 1009.5 1009.4 0.0
26/06:30am 23.6 25.8 21.1 86 1.6 ESE 11 15 6 8 1009.1 1009.0 0.0
26/06:00am 23.7 25.5 21.2 86 1.6 SE 13 20 7 11 1008.7 1008.6 0.0
26/05:30am 24.1 26.4 21.4 85 1.8 SE 11 17 6 9 1008.6 1008.5 0.0
26/05:00am 24.2 26.5 21.3 84 1.9 SE 11 15 6 8 1008.3 1008.2 0.0
26/04:30am 24.4 26.8 21.5 84 1.9 SE 11 15 6 8 1008.2 1008.1 0.0
26/04:00am 24.7 27.1 21.6 83 2.1 ESE 11 17 6 9 1008.0 1007.9 0.0
26/03:30am 24.8 27.3 21.7 83 2.1 SE 11 17 6 9 1008.1 1008.0 0.0
26/03:00am 24.9 26.9 21.6 82 2.2 ESE 13 17 7 9 1008.0 1007.9 0.0
26/02:30am 25.3 28.1 21.6 80 2.5 ESE 9 15 5 8 1008.1 1008.0 0.0
26/02:00am 25.7 28.0 21.4 77 2.9 ESE 11 15 6 8 1008.5 1008.4 0.0
26/01:30am 25.4 28.5 21.5 79 2.6 ESE 7 9 4 5 1008.9 1008.8 0.0
26/01:00am 25.8 28.6 21.5 77 2.9 E 9 13 5 7 1009.3 1009.2 0.0
26/12:30am 26.1 28.5 21.5 76 3.1 ESE 11 19 6 10 1009.6 1009.5 0.0
26/12:00am 26.3 28.6 21.3 74 3.3 E 11 19 6 10 1009.9 1009.8 0.0
 
Date/Time
EST
Temp
°C
App
Temp
°C
Dew
Point
°C
Rel
Hum
%
Delta-T
°C
Wind Press
QNH
hPa
Press
MSL
hPa
Rain since
9am
mm
Dir  Spd
km/h
Gust
km/h
Spd
kts
Gust
kts
25/11:30pm 26.4 28.7 21.4 74 3.3 E 11 17 6 9 1010.1 1010.0 0.0
25/11:00pm 25.9 28.6 21.3 76 3.0 ESE 9 13 5 7 1010.3 1010.2 0.0
25/10:30pm 26.2 28.9 21.4 75 3.2 ESE 9 13 5 7 1010.2 1010.1 0.0
25/10:00pm 26.7 28.8 21.0 71 3.8 E 11 15 6 8 1010.3 1010.2 0.0
25/09:30pm 26.9 28.8 21.4 72 3.7 E 13 19 7 10 1010.2 1010.1 0.0
25/09:00pm 26.8 29.1 21.3 72 3.7 E 11 17 6 9 1010.0 1009.9 0.0
25/08:30pm 26.9 28.8 21.4 72 3.7 E 13 20 7 11 1009.7 1009.6 0.0
25/08:00pm 27.1 29.3 21.2 70 3.9 E 11 17 6 9 1009.6 1009.5 0.0
25/07:30pm 27.2 29.3 21.0 69 4.1 E 11 15 6 8 1009.2 1009.1 0.0
25/07:00pm 27.4 29.0 20.7 67 4.4 E 13 20 7 11 1008.8 1008.7 0.0
25/06:30pm 27.6 28.7 20.4 65 4.7 ENE 15 22 8 12 1008.4 1008.3 0.0
25/06:00pm 28.2 28.4 20.2 62 5.3 ENE 19 30 10 16 1008.0 1007.9 0.0
25/05:30pm 29.5 29.9 19.8 56 6.4 ENE 17 22 9 12 1007.8 1007.7 0.0
25/05:00pm 30.2 29.8 19.3 52 7.1 E 20 30 11 16 1007.5 1007.4 0.0
25/04:30pm 30.9 30.6 19.6 51 7.4 E 20 28 11 15 1007.5 1007.4 0.0
25/04:00pm 30.8 29.9 19.8 52 7.2 E 24 32 13 17 1007.4 1007.3 0.0
25/03:30pm 31.6 30.8 19.2 47 8.1 E 22 30 12 16 1007.4 1007.3 0.0
25/03:00pm 32.2 32.1 19.5 47 8.4 E 19 32 10 17 1007.6 1007.5 0.0
25/02:30pm 32.3 32.0 19.5 46 8.4 E 20 30 11 16 1007.9 1007.8 0.0
25/02:00pm 32.6 32.8 20.2 48 8.3 E 19 30 10 16 1008.2 1008.1 0.0
25/01:30pm 32.3 32.4 19.2 46 8.6 ENE 17 28 9 15 1008.4 1008.3 0.0
25/01:00pm 31.6 31.2 18.9 47 8.3 E 19 32 10 17 1008.9 1008.8 0.0
25/12:30pm 32.2 32.3 19.1 45 8.6 ENE 17 28 9 15 1009.1 1009.0 0.0
25/12:00pm 32.2 32.3 19.1 45 8.6 ENE 17 24 9 13 1009.7 1009.6 0.0
25/11:30am 32.2 31.8 18.8 45 8.7 E 19 28 10 15 1010.2 1010.1 0.0
25/11:00am 31.5 31.5 20.1 50 7.5 ENE 20 30 11 16 1010.7 1010.6 0.0
25/10:30am 31.1 31.8 20.4 53 7.1 ENE 17 28 9 15 1011.0 1010.9 0.0
25/10:00am 30.0 31.3 20.8 57 6.1 ENE 15 28 8 15 1011.2 1011.1 0.0
25/09:30am 29.3 30.3 21.0 61 5.5 ENE 17 28 9 15 1011.0 1010.9 0.0
25/09:00am 28.4 30.9 22.4 70 4.1 E 13 22 7 12 1010.9 1010.8 1.0
25/08:30am 26.5 29.4 23.2 82 2.2 E 13 19 7 10 1010.7 1010.6 1.0
25/08:00am 26.7 30.4 23.2 81 2.4 SE 9 13 5 7 1010.4 1010.3 0.4
25/07:30am 25.7 29.0 22.6 83 2.1 SSE 9 13 5 7 1010.1 1010.0 0.4
25/07:00am 26.3 30.1 23.4 84 2.0 SE 9 15 5 8 1009.9 1009.8 0.4
25/06:30am 25.3 28.4 22.8 86 1.7 ESE 11 17 6 9 1009.6 1009.5 0.4
25/06:00am 25.0 28.0 22.7 87 1.6 SE 11 15 6 8 1009.3 1009.2 0.4
25/05:30am 25.3 28.8 22.8 86 1.7 SE 9 13 5 7 1009.3 1009.2 0.4
25/05:00am 25.3 28.5 23.0 87 1.6 ESE 11 19 6 10 1008.8 1008.7 0.4
25/04:30am 25.9 28.9 22.6 82 2.2 ESE 11 19 6 10 1008.8 1008.7 0.0
25/04:00am 26.1 28.8 22.2 79 2.6 ESE 11 15 6 8 1008.5 1008.4 0.0
25/03:30am 26.2 28.5 22.1 78 2.7 ESE 13 20 7 11 1008.4 1008.3 0.0
25/03:00am 26.2 28.9 22.1 78 2.8 SE 11 20 6 11 1008.5 1008.4 0.0
25/02:30am 26.4 28.6 21.8 76 3.1 ESE 13 15 7 8 1008.7 1008.6 0.0
25/02:00am 26.6 28.5 21.4 73 3.5 E 13 17 7 9 1009.2 1009.1 0.0
25/01:30am 26.9 28.5 21.4 72 3.7 E 15 20 8 11 1009.7 1009.6 0.0
25/01:00am 27.0 28.2 21.5 72 3.7 E 17 22 9 12 1010.0 1009.9 0.0
25/12:30am 27.1 28.4 21.6 72 3.7 E 17 24 9 13 1010.3 1010.2 0.0
25/12:00am 27.1 28.5 21.8 73 3.5 E 17 24 9 13 1010.6 1010.5 0.0
 
Date/Time
EST
Temp
°C
App
Temp
°C
Dew
Point
°C
Rel
Hum
%
Delta-T
°C
Wind Press
QNH
hPa
Press
MSL
hPa
Rain since
9am
mm
Dir  Spd
km/h
Gust
km/h
Spd
kts
Gust
kts
24/11:30pm 27.2 28.5 21.7 72 3.7 E 17 26 9 14 1010.8 1010.7 0.0
24/11:00pm 27.2 28.8 21.5 71 3.8 E 15 26 8 14 1010.8 1010.7 0.0
24/10:30pm 27.3 28.6 21.6 71 3.8 E 17 26 9 14 1010.7 1010.6 0.0
24/10:00pm 27.3 29.0 21.6 71 3.8 E 15 30 8 16 1010.5 1010.4 0.0
24/09:30pm 27.5 28.9 21.8 71 3.8 E 17 22 9 12 1010.5 1010.4 0.0
24/09:00pm 27.5 28.5 21.8 71 3.8 E 19 26 10 14 1010.4 1010.3 0.0
24/08:30pm 27.8 29.1 21.6 69 4.1 ENE 17 30 9 16 1010.3 1010.2 0.0
24/08:00pm 27.6 29.9 22.1 72 3.7 E 13 24 7 13 1010.5 1010.4 0.0
24/07:30pm 27.7 29.3 21.5 69 4.1 E 15 28 8 15 1009.8 1009.7 0.0
24/07:00pm 27.9 29.7 21.2 67 4.5 ENE 13 20 7 11 1009.6 1009.5 0.0
24/06:30pm 28.0 29.4 21.1 66 4.6 ENE 15 22 8 12 1009.0 1008.9 0.0
24/06:00pm 28.8 29.4 21.1 63 5.1 ENE 19 33 10 18 1008.8 1008.7 0.0
24/05:30pm 29.1 29.4 20.8 61 5.5 ENE 20 30 11 16 1008.5 1008.4 0.0
24/05:00pm 29.9 29.8 20.7 57 6.1 ENE 22 33 12 18 1008.1 1008.0 0.0
24/04:30pm 30.7 30.9 20.6 54 6.7 E 20 33 11 18 1008.1 1008.0 0.0
24/04:00pm 31.1 31.0 20.7 54 6.9 E 22 35 12 19 1008.0 1007.9 0.0
24/03:30pm 31.5 31.5 20.1 50 7.5 E 20 32 11 17 1007.9 1007.8 0.0
24/03:00pm 31.8 31.8 20.1 50 7.8 E 20 28 11 15 1008.3 1008.2 0.0
24/02:30pm 32.6 32.8 20.5 49 8.1 E 20 30 11 16 1008.5 1008.4 0.0
24/02:00pm 32.2 32.2 20.1 48 8.0 E 20 30 11 16 1008.8 1008.7 0.0
24/01:30pm 32.1 31.9 19.7 48 8.2 E 20 32 11 17 1009.2 1009.1 0.0
24/01:00pm 33.4 33.7 19.5 44 9.2 ENE 17 26 9 14 1009.6 1009.5 0.0
24/12:30pm 33.7 34.0 19.7 43 9.3 ENE 17 24 9 13 1009.9 1009.8 0.0
24/12:00pm 32.4 31.9 18.6 44 9.0 E 19 28 10 15 1010.2 1010.1 0.0
24/11:30am 31.8 31.6 19.4 47 8.1 E 19 28 10 15 1010.4 1010.3 0.0
24/11:00am 31.4 31.5 20.0 50 7.5 E 19 28 10 15 1010.7 1010.6 0.0
24/10:30am 31.6 31.9 20.5 51 7.4 E 19 28 10 15 1010.9 1010.8 0.0
24/10:00am 31.3 31.7 20.6 53 7.1 ENE 19 28 10 15 1010.8 1010.7 0.0
24/09:30am 30.9 30.6 19.6 51 7.4 ENE 20 28 11 15 1011.2 1011.1 0.0
24/09:00am 29.9 30.9 21.0 59 5.9 E 17 26 9 14 1010.8 1010.7 0.0
24/08:30am 29.6 30.8 21.5 61 5.4 ESE 17 24 9 13 1010.9 1010.8 0.0
24/08:00am 29.0 31.3 22.0 66 4.7 ESE 13 19 7 10 1010.9 1010.8 0.0
24/07:30am 28.3 31.6 23.2 74 3.5 ESE 11 17 6 9 1010.5 1010.4 0.0
24/07:00am 27.0 30.3 22.6 77 3.0 SE 9 15 5 8 1010.3 1010.2 0.0
24/06:30am 26.0 29.0 22.7 82 2.2 SE 11 15 6 8 1009.8 1009.7 0.0
24/06:00am 25.4 29.2 22.7 85 1.8 ESE 7 11 4 6 1009.5 1009.4 0.0
24/05:30am 25.3 29.2 22.6 85 1.8 SE 6 7 3 4 1009.1 1009.0 0.0
24/05:00am 25.9 30.8 22.4 81 2.4 CALM 0 6 0 3 1009.1 1009.0 0.0
24/04:30am 25.8 29.2 22.7 83 2.1 E 9 15 5 8 1008.8 1008.7 0.0
24/04:00am 25.9 29.6 23.2 85 1.8 ESE 9 13 5 7 1008.7 1008.6 0.0
24/03:30am 26.0 29.2 23.1 84 2.0 ESE 11 17 6 9 1008.7 1008.6 0.0
24/03:00am 26.2 28.8 23.3 84 2.0 ESE 15 20 8 11 1008.6 1008.5 0.0
24/02:30am 26.1 29.1 23.4 85 1.8 ESE 13 17 7 9 1008.8 1008.7 0.0
24/02:00am 26.6 29.4 23.7 84 2.0 ESE 15 19 8 10 1009.0 1008.9 0.0
24/01:30am 26.7 29.6 23.8 84 2.0 ESE 15 20 8 11 1008.9 1008.8 0.0
24/01:00am 26.8 31.1 23.7 83 2.1 SE 7 11 4 6 1009.7 1009.6 0.0
24/12:30am 26.4 31.7 23.7 85 1.9 SW 2 6 1 3 1010.2 1010.1 0.0
24/12:00am 26.4 30.9 23.9 86 1.7 S 7 9 4 5 1010.2 1010.1 0.0
 
Date/Time
EST
Temp
°C
App
Temp
°C
Dew
Point
°C
Rel
Hum
%
Delta-T
°C
Wind Press
QNH
hPa
Press
MSL
hPa
Rain since
9am
mm
Dir  Spd
km/h
Gust
km/h
Spd
kts
Gust
kts
23/11:30pm 26.4 29.7 23.9 86 1.7 SSW 13 15 7 8 1010.0 1009.9 0.0
23/11:00pm 25.6 30.8 22.9 85 1.8 CALM 0 0 0 0 1009.3 1009.2 0.0
23/10:30pm 25.9 30.1 23.4 86 1.7 WNW 7 11 4 6 1009.1 1009.0 0.0
23/10:00pm 25.8 30.3 22.9 84 2.0 W 4 11 2 6 1008.7 1008.6 0.0
23/09:30pm 27.0 31.5 23.0 79 2.7 SE 4 7 2 4 1008.4 1008.3 0.0
23/09:00pm 26.9 30.7 23.4 81 2.4 W 9 11 5 6 1008.4 1008.3 0.0
23/08:30pm 27.1 31.1 22.7 77 3.0 ENE 6 11 3 6 1007.7 1007.6 0.0
23/08:00pm 27.7 30.7 23.3 77 3.0 ESE 13 20 7 11 1006.9 1006.8 0.0

Other formats

Comma delimited format used in spreadsheet applications
http://www.bom.gov.au/fwo/IDQ60801/IDQ60801.94374.axf

JavaScript Object Notation format (JSON) in row-major order
http://www.bom.gov.au/fwo/IDQ60801/IDQ60801.94374.json

Data quality

Most of these data are generated automatically and are frequently updated. Quality checks on data are not normally performed. It is possible for incorrect values to appear. Refer to information at About Latest Weather Observations and please check the disclaimer before using these data.